Wetterdaten: Woche 22.01.18 - 28.01.18 (KW4)
Datum Zeit Temp. A. Feuchte A. Luftdruck Regen Wind Richtung Taupunkt Windchill Windben
22.01.2018 00:00 0,3 C 79 % 1018,1 hPa 0,0 l/m 6,4 km/h N -2,9 C 0,1 C 19,3 km/h
22.01.2018 01:00 0,1 C 78 % 1017,9 hPa 0,0 l/m 6,6 km/h N -3,3 C -0,7 C 19,7 km/h
22.01.2018 02:00 -0,3 C 78 % 1018,3 hPa 0,0 l/m 2,3 km/h N -3,7 C -0,3 C 10,1 km/h
22.01.2018 03:00 -0,8 C 77 % 1018,3 hPa 0,0 l/m 0,6 km/h N -4,3 C -0,8 C 6,4 km/h
22.01.2018 04:00 -1,7 C 78 % 1018,0 hPa 0,0 l/m 0,0 km/h N -5,0 C -1,7 C 0,0 km/h
22.01.2018 05:00 -3,0 C 80 % 1017,9 hPa 0,0 l/m 0,0 km/h N -6,0 C -3,0 C 0,0 km/h
22.01.2018 06:00 -2,7 C 82 % 1017,0 hPa 0,0 l/m 0,0 km/h N -5,3 C -2,7 C 0,0 km/h
22.01.2018 07:00 -2,5 C 83 % 1016,7 hPa 0,0 l/m 0,0 km/h N -5,0 C -2,5 C 0,0 km/h
22.01.2018 08:00 -2,3 C 84 % 1016,5 hPa 0,0 l/m 0,0 km/h N -4,7 C -2,3 C 0,0 km/h
22.01.2018 09:00 -1,4 C 84 % 1016,4 hPa 0,0 l/m 0,0 km/h N -3,7 C -1,4 C 0,8 km/h
22.01.2018 10:00 -0,3 C 83 % 1015,9 hPa 0,0 l/m 0,1 km/h N -3,0 C -0,3 C 2,0 km/h
22.01.2018 11:00 0,6 C 79 % 1015,3 hPa 0,0 l/m 0,0 km/h N -2,5 C 0,6 C 4,0 km/h
22.01.2018 12:00 1,5 C 75 % 1014,5 hPa 0,0 l/m 0,0 km/h N -2,5 C 1,5 C 0,8 km/h
22.01.2018 13:00 2,0 C 73 % 1013,6 hPa 0,0 l/m 0,2 km/h N -2,3 C 2,0 C 6,0 km/h
22.01.2018 14:00 2,2 C 72 % 1012,8 hPa 0,0 l/m 0,1 km/h N -2,3 C 2,2 C 2,0 km/h
22.01.2018 15:00 2,3 C 72 % 1012,7 hPa 0,0 l/m 0,1 km/h N -2,2 C 2,3 C 3,2 km/h
22.01.2018 16:00 1,6 C 75 % 1012,8 hPa 0,0 l/m 0,0 km/h N -2,3 C 1,6 C 1,2 km/h
22.01.2018 17:00 0,9 C 79 % 1012,9 hPa 0,0 l/m 0,0 km/h N -2,3 C 0,9 C 0,0 km/h
22.01.2018 18:00 0,6 C 83 % 1013,1 hPa 0,0 l/m 0,0 km/h N -2,0 C 0,6 C 0,8 km/h
22.01.2018 19:00 0,7 C 83 % 1013,1 hPa 0,0 l/m 0,0 km/h N -1,9 C 0,7 C 1,2 km/h
22.01.2018 20:00 0,4 C 84 % 1013,4 hPa 0,0 l/m 0,0 km/h N -1,9 C 0,4 C 0,4 km/h
22.01.2018 21:00 0,3 C 84 % 1013,6 hPa 0,0 l/m 0,0 km/h N -2,1 C 0,3 C 0,4 km/h
22.01.2018 22:00 0,3 C 84 % 1013,8 hPa 0,0 l/m 0,0 km/h N -2,1 C 0,3 C 0,0 km/h
22.01.2018 23:00 0,3 C 84 % 1014,0 hPa 0,0 l/m 0,0 km/h N -2,0 C 0,3 C 0,8 km/h
23.01.2018 00:00 0,5 C 84 % 1014,8 hPa 0,0 l/m 0,0 km/h N -1,9 C 0,5 C 0,0 km/h
23.01.2018 01:00 0,6 C 84 % 1015,6 hPa 0,0 l/m 0,0 km/h N -1,8 C 0,6 C 0,4 km/h
23.01.2018 02:00 0,8 C 84 % 1016,4 hPa 0,0 l/m 0,1 km/h N -1,6 C 0,8 C 2,0 km/h
23.01.2018 03:00 1,6 C 84 % 1016,8 hPa 0,3 l/m 0,9 km/h N -0,8 C 1,6 C 6,1 km/h
23.01.2018 04:00 3,0 C 84 % 1017,3 hPa 0,8 l/m 6,1 km/h N 0,6 C 2,2 C 17,7 km/h
23.01.2018 05:00 3,4 C 83 % 1017,8 hPa 0,0 l/m 8,0 km/h N 0,8 C 2,0 C 22,5 km/h
23.01.2018 06:00 3,9 C 81 % 1018,7 hPa 0,0 l/m 8,0 km/h N 1,0 C 2,5 C 22,1 km/h
23.01.2018 07:00 4,2 C 81 % 1019,9 hPa 0,0 l/m 7,1 km/h N 1,2 C 2,8 C 19,7 km/h
23.01.2018 08:00 4,5 C 80 % 1021,2 hPa 0,3 l/m 8,9 km/h N 1,4 C 2,3 C 20,5 km/h
23.01.2018 09:00 4,7 C 81 % 1022,4 hPa 0,0 l/m 7,2 km/h N 1,7 C 3,9 C 19,7 km/h
23.01.2018 10:00 5,3 C 80 % 1023,3 hPa 0,0 l/m 7,2 km/h N 2,1 C 4,3 C 18,1 km/h
23.01.2018 11:00 5,7 C 78 % 1024,0 hPa 0,0 l/m 8,2 km/h N 2,2 C 4,2 C 21,7 km/h
23.01.2018 12:00 6,2 C 77 % 1024,4 hPa 0,0 l/m 8,4 km/h N 2,5 C 4,5 C 22,5 km/h
23.01.2018 13:00 6,0 C 79 % 1025,0 hPa 0,0 l/m 7,7 km/h N 2,6 C 4,9 C 20,1 km/h
23.01.2018 14:00 6,1 C 78 % 1025,3 hPa 0,0 l/m 7,4 km/h N 2,6 C 5,2 C 19,3 km/h
23.01.2018 15:00 6,3 C 77 % 1025,8 hPa 0,0 l/m 5,6 km/h N 2,5 C 6,0 C 17,7 km/h
23.01.2018 16:00 6,1 C 77 % 1026,3 hPa 0,0 l/m 4,1 km/h N 2,3 C 6,1 C 13,3 km/h
23.01.2018 17:00 5,9 C 77 % 1027,0 hPa 0,0 l/m 3,5 km/h N 2,2 C 5,9 C 14,1 km/h
23.01.2018 18:00 5,8 C 78 % 1027,5 hPa 0,0 l/m 3,1 km/h N 2,3 C 5,8 C 11,3 km/h
23.01.2018 19:00 5,9 C 79 % 1027,8 hPa 0,0 l/m 4,2 km/h N 2,4 C 5,9 C 14,5 km/h
23.01.2018 20:00 6,1 C 78 % 1027,9 hPa 0,0 l/m 4,5 km/h N 2,5 C 6,1 C 14,1 km/h
23.01.2018 21:00 5,9 C 78 % 1028,1 hPa 0,0 l/m 1,4 km/h N 2,4 C 5,9 C 8,5 km/h
23.01.2018 22:00 5,8 C 78 % 1028,1 hPa 0,0 l/m 0,1 km/h N 2,2 C 5,8 C 1,2 km/h
23.01.2018 23:00 5,4 C 78 % 1028,2 hPa 0,0 l/m 0,0 km/h N 1,9 C 5,4 C 0,4 km/h
24.01.2018 00:00 4,9 C 80 % 1028,2 hPa 0,0 l/m 0,0 km/h N 1,7 C 4,9 C 0,0 km/h
24.01.2018 01:00 4,3 C 81 % 1028,1 hPa 0,0 l/m 0,0 km/h N 1,2 C 4,3 C 0,0 km/h
24.01.2018 02:00 3,7 C 82 % 1028,2 hPa 0,0 l/m 0,0 km/h N 0,8 C 3,7 C 0,0 km/h
24.01.2018 03:00 3,4 C 83 % 1028,0 hPa 0,0 l/m 0,0 km/h N 0,7 C 3,4 C 0,0 km/h
24.01.2018 04:00 3,2 C 83 % 1028,0 hPa 0,0 l/m 0,0 km/h N 0,6 C 3,2 C 0,0 km/h
24.01.2018 05:00 3,3 C 84 % 1027,7 hPa 0,0 l/m 0,1 km/h N 0,8 C 3,3 C 0,8 km/h
24.01.2018 06:00 3,1 C 84 % 1027,9 hPa 0,0 l/m 0,0 km/h N 0,6 C 3,1 C 0,0 km/h
24.01.2018 07:00 3,1 C 84 % 1027,9 hPa 0,0 l/m 0,0 km/h N 0,6 C 3,1 C 0,8 km/h
24.01.2018 08:00 3,5 C 84 % 1028,1 hPa 0,0 l/m 0,0 km/h N 0,9 C 3,5 C 0,8 km/h
24.01.2018 09:00 3,7 C 83 % 1028,4 hPa 0,3 l/m 0,0 km/h N 1,1 C 3,7 C 0,5 km/h
24.01.2018 10:00 4,2 C 83 % 1028,5 hPa 0,3 l/m 0,0 km/h N 1,6 C 4,2 C 2,0 km/h
24.01.2018 11:00 4,8 C 83 % 1028,6 hPa 0,0 l/m 0,1 km/h N 2,2 C 4,8 C 3,6 km/h
24.01.2018 12:00 5,3 C 84 % 1028,3 hPa 0,0 l/m 0,1 km/h N 2,7 C 5,3 C 3,6 km/h
24.01.2018 13:00 6,0 C 82 % 1027,5 hPa 0,0 l/m 0,5 km/h N 3,2 C 6,0 C 6,0 km/h
24.01.2018 14:00 6,4 C 82 % 1027,0 hPa 0,0 l/m 0,6 km/h N 3,4 C 6,4 C 5,2 km/h
24.01.2018 15:00 7,0 C 80 % 1026,8 hPa 0,0 l/m 0,5 km/h N 3,8 C 7,0 C 4,4 km/h
24.01.2018 16:00 6,3 C 79 % 1026,7 hPa 0,0 l/m 0,1 km/h N 3,0 C 6,3 C 3,2 km/h
24.01.2018 17:00 4,6 C 80 % 1026,6 hPa 0,0 l/m 0,0 km/h N 1,4 C 4,6 C 0,0 km/h
24.01.2018 18:00 2,5 C 81 % 1026,5 hPa 0,0 l/m 0,0 km/h N -0,4 C 2,5 C 0,0 km/h
24.01.2018 19:00 1,2 C 82 % 1026,1 hPa 0,0 l/m 0,0 km/h N -1,5 C 1,2 C 0,0 km/h
24.01.2018 20:00 0,3 C 83 % 1025,4 hPa 0,0 l/m 0,0 km/h N -2,3 C 0,3 C 0,0 km/h
24.01.2018 21:00 -0,3 C 84 % 1024,5 hPa 0,0 l/m 0,0 km/h N -2,7 C -0,3 C 0,0 km/h
24.01.2018 22:00 -0,6 C 84 % 1023,7 hPa 0,0 l/m 0,0 km/h N -2,9 C -0,6 C 0,4 km/h
24.01.2018 23:00 -0,6 C 84 % 1023,2 hPa 0,0 l/m 0,0 km/h N -3,0 C -0,6 C 0,0 km/h
25.01.2018 00:00 -0,8 C 84 % 1022,9 hPa 0,0 l/m 0,0 km/h N -3,1 C -0,8 C 0,0 km/h
25.01.2018 01:00 -1,1 C 84 % 1022,9 hPa 0,0 l/m 0,0 km/h N -3,5 C -1,1 C 0,0 km/h
25.01.2018 02:00 -1,5 C 84 % 1022,9 hPa 0,0 l/m 0,0 km/h N -3,9 C -1,5 C 0,0 km/h
25.01.2018 03:00 -1,6 C 84 % 1022,9 hPa 0,0 l/m 0,0 km/h N -4,0 C -1,6 C 0,8 km/h
25.01.2018 04:00 -2,1 C 84 % 1023,1 hPa 0,0 l/m 0,0 km/h N -4,4 C -2,1 C 0,0 km/h
25.01.2018 05:00 -2,3 C 84 % 1023,2 hPa 0,0 l/m 0,0 km/h N -4,6 C -2,3 C 0,0 km/h
25.01.2018 06:00 -2,5 C 84 % 1023,8 hPa 0,0 l/m 0,0 km/h N -4,9 C -2,5 C 0,0 km/h
25.01.2018 07:00 -2,6 C 84 % 1024,4 hPa 0,0 l/m 0,0 km/h N -4,9 C -2,6 C 0,0 km/h
25.01.2018 08:00 -1,8 C 84 % 1024,6 hPa 0,0 l/m 0,0 km/h N -4,1 C -1,8 C 0,0 km/h
25.01.2018 09:00 0,2 C 84 % 1024,4 hPa 0,0 l/m 0,0 km/h N -2,2 C 0,2 C 0,4 km/h
25.01.2018 10:00 1,3 C 84 % 1024,3 hPa 0,0 l/m 0,0 km/h N -1,1 C 1,3 C 0,0 km/h
25.01.2018 11:00 1,3 C 84 % 1024,0 hPa 0,0 l/m 0,6 km/h N -1,0 C 1,3 C 5,2 km/h
25.01.2018 12:00 1,7 C 84 % 1023,4 hPa 0,0 l/m 0,7 km/h N -0,7 C 1,7 C 5,6 km/h
25.01.2018 13:00 2,5 C 84 % 1022,6 hPa 0,0 l/m 0,6 km/h N 0,1 C 2,5 C 5,6 km/h
25.01.2018 14:00 3,8 C 84 % 1021,8 hPa 0,0 l/m 0,6 km/h N 1,3 C 3,8 C 6,8 km/h
25.01.2018 15:00 4,4 C 83 % 1021,5 hPa 0,0 l/m 0,2 km/h N 1,8 C 4,4 C 4,8 km/h
25.01.2018 16:00 3,9 C 82 % 1021,3 hPa 0,0 l/m 0,0 km/h N 1,0 C 3,9 C 1,6 km/h
25.01.2018 17:00 2,4 C 81 % 1021,3 hPa 0,0 l/m 0,0 km/h N -0,5 C 2,4 C 0,0 km/h
25.01.2018 18:00 1,4 C 83 % 1021,0 hPa 0,0 l/m 0,0 km/h N -1,3 C 1,4 C 0,0 km/h
25.01.2018 19:00 0,6 C 84 % 1020,8 hPa 0,0 l/m 0,0 km/h N -1,9 C 0,6 C 0,4 km/h
25.01.2018 20:00 0,5 C 84 % 1020,0 hPa 0,0 l/m 0,0 km/h N -1,9 C 0,5 C 0,0 km/h
25.01.2018 21:00 0,0 C 84 % 1019,6 hPa 0,0 l/m 0,0 km/h N -2,4 C 0,0 C 0,0 km/h
25.01.2018 22:00 0,0 C 84 % 1019,4 hPa 0,0 l/m 0,0 km/h N -2,3 C 0,0 C 0,4 km/h
25.01.2018 23:00 0,1 C 84 % 1019,5 hPa 0,0 l/m 0,0 km/h N -2,3 C 0,1 C 0,0 km/h
26.01.2018 00:00 0,2 C 84 % 1019,3 hPa 0,0 l/m 0,0 km/h N -2,2 C 0,2 C 0,0 km/h
26.01.2018 01:00 0,2 C 84 % 1019,1 hPa 0,0 l/m 0,0 km/h N -2,2 C 0,2 C 0,0 km/h
26.01.2018 02:00 0,3 C 84 % 1019,0 hPa 0,0 l/m 0,0 km/h N -2,1 C 0,3 C 0,4 km/h
26.01.2018 03:00 0,3 C 84 % 1019,0 hPa 0,0 l/m 0,0 km/h N -2,1 C 0,3 C 0,0 km/h
26.01.2018 04:00 0,3 C 84 % 1019,1 hPa 0,0 l/m 0,0 km/h N -2,1 C 0,3 C 0,0 km/h
26.01.2018 05:00 0,4 C 84 % 1019,4 hPa 0,0 l/m 0,0 km/h N -2,0 C 0,4 C 0,0 km/h
26.01.2018 06:00 0,6 C 84 % 1019,5 hPa 0,0 l/m 0,0 km/h N -1,8 C 0,6 C 0,0 km/h
26.01.2018 07:00 0,8 C 84 % 1019,9 hPa 0,0 l/m 0,0 km/h N -1,6 C 0,8 C 0,0 km/h
26.01.2018 08:00 0,9 C 84 % 1020,0 hPa 0,0 l/m 0,0 km/h N -1,5 C 0,9 C 0,0 km/h
26.01.2018 09:00 1,4 C 84 % 1020,2 hPa 0,0 l/m 0,0 km/h N -1,0 C 1,4 C 0,0 km/h
26.01.2018 10:00 1,7 C 84 % 1020,5 hPa 0,0 l/m 0,0 km/h N -0,7 C 1,7 C 0,0 km/h
26.01.2018 11:00 1,9 C 84 % 1020,5 hPa 0,0 l/m 0,0 km/h N -0,5 C 1,9 C 0,0 km/h
26.01.2018 12:00 1,9 C 84 % 1020,6 hPa 0,0 l/m 0,0 km/h N -0,5 C 1,9 C 0,4 km/h
26.01.2018 13:00 2,1 C 84 % 1020,5 hPa 0,0 l/m 0,0 km/h N -0,3 C 2,1 C 0,0 km/h
26.01.2018 14:00 2,2 C 84 % 1020,6 hPa 0,0 l/m 0,0 km/h N -0,3 C 2,2 C 0,8 km/h
26.01.2018 15:00 2,0 C 84 % 1021,0 hPa 0,0 l/m 0,0 km/h N -0,4 C 2,0 C 0,0 km/h
26.01.2018 16:00 1,8 C 84 % 1021,5 hPa 0,0 l/m 0,0 km/h N -0,6 C 1,8 C 0,0 km/h
26.01.2018 17:00 1,8 C 84 % 1022,0 hPa 0,0 l/m 0,0 km/h N -0,6 C 1,8 C 1,6 km/h
26.01.2018 18:00 1,9 C 84 % 1022,6 hPa 0,0 l/m 0,0 km/h N -0,5 C 1,9 C 0,8 km/h
26.01.2018 19:00 1,8 C 84 % 1022,8 hPa 0,0 l/m 0,0 km/h N -0,6 C 1,8 C 0,4 km/h
26.01.2018 20:00 1,7 C 84 % 1023,3 hPa 0,0 l/m 0,0 km/h N -0,7 C 1,7 C 0,0 km/h
26.01.2018 21:00 1,8 C 84 % 1023,6 hPa 0,0 l/m 0,0 km/h N -0,7 C 1,8 C 0,0 km/h
26.01.2018 22:00 1,8 C 84 % 1024,0 hPa 0,0 l/m 0,0 km/h N -0,6 C 1,8 C 0,0 km/h
26.01.2018 23:00 1,8 C 84 % 1024,5 hPa 0,0 l/m 0,0 km/h N -0,6 C 1,8 C 0,0 km/h
27.01.2018 00:00 1,7 C 84 % 1025,0 hPa 0,0 l/m 0,0 km/h N -0,7 C 1,7 C 0,0 km/h
27.01.2018 01:00 1,7 C 84 % 1025,4 hPa 0,0 l/m 0,0 km/h N -0,7 C 1,7 C 0,0 km/h
27.01.2018 02:00 1,9 C 84 % 1025,8 hPa 0,0 l/m 0,0 km/h N -0,6 C 1,9 C 0,4 km/h
27.01.2018 03:00 1,9 C 84 % 1026,1 hPa 0,0 l/m 0,1 km/h N -0,5 C 1,9 C 2,0 km/h
27.01.2018 04:00 1,8 C 84 % 1026,8 hPa 0,0 l/m 1,1 km/h N -0,6 C 1,8 C 4,4 km/h
27.01.2018 05:00 1,7 C 84 % 1027,3 hPa 0,0 l/m 2,8 km/h N -0,7 C 1,7 C 8,4 km/h
27.01.2018 06:00 1,7 C 84 % 1027,9 hPa 0,0 l/m 4,9 km/h N -0,7 C 1,7 C 12,5 km/h
27.01.2018 07:00 1,8 C 84 % 1028,9 hPa 0,0 l/m 4,2 km/h N -0,7 C 1,8 C 13,7 km/h
27.01.2018 08:00 1,8 C 84 % 1029,8 hPa 0,0 l/m 1,7 km/h N -0,6 C 1,8 C 8,9 km/h
27.01.2018 09:00 1,7 C 84 % 1030,4 hPa 0,0 l/m 2,3 km/h N -0,7 C 1,7 C 8,1 km/h
27.01.2018 10:00 2,0 C 84 % 1030,9 hPa 0,0 l/m 3,9 km/h N -0,4 C 2,0 C 9,7 km/h
27.01.2018 11:00 2,3 C 84 % 1031,3 hPa 0,0 l/m 3,5 km/h N -0,1 C 2,3 C 9,2 km/h
27.01.2018 12:00 2,4 C 83 % 1031,5 hPa 0,0 l/m 4,4 km/h N -0,1 C 2,4 C 13,3 km/h
27.01.2018 13:00 2,4 C 83 % 1031,7 hPa 0,0 l/m 4,7 km/h N -0,2 C 2,4 C 12,5 km/h
27.01.2018 14:00 2,6 C 83 % 1031,7 hPa 0,0 l/m 3,7 km/h N 0,0 C 2,6 C 10,9 km/h
27.01.2018 15:00 2,7 C 83 % 1032,1 hPa 0,0 l/m 4,8 km/h N 0,1 C 2,7 C 12,1 km/h
27.01.2018 16:00 2,7 C 82 % 1032,6 hPa 0,0 l/m 3,4 km/h N -0,1 C 2,7 C 8,9 km/h
27.01.2018 17:00 2,8 C 82 % 1033,3 hPa 0,0 l/m 3,2 km/h N 0,0 C 2,8 C 9,3 km/h
27.01.2018 18:00 2,7 C 82 % 1033,8 hPa 0,0 l/m 1,6 km/h N -0,1 C 2,7 C 9,6 km/h
27.01.2018 19:00 2,7 C 83 % 1034,2 hPa 0,0 l/m 0,7 km/h N 0,1 C 2,7 C 6,8 km/h
27.01.2018 20:00 2,7 C 83 % 1034,3 hPa 0,0 l/m 0,1 km/h N 0,1 C 2,7 C 2,8 km/h
27.01.2018 21:00 2,7 C 83 % 1034,6 hPa 0,0 l/m 0,1 km/h N 0,1 C 2,7 C 2,8 km/h
27.01.2018 22:00 2,3 C 83 % 1034,6 hPa 0,0 l/m 0,5 km/h N -0,3 C 2,3 C 4,8 km/h
27.01.2018 23:00 1,7 C 84 % 1034,6 hPa 0,0 l/m 0,0 km/h N -0,7 C 1,7 C 0,8 km/h
28.01.2018 00:00 1,3 C 84 % 1034,4 hPa 0,0 l/m 0,0 km/h N -1,0 C 1,3 C 0,0 km/h
28.01.2018 01:00 1,6 C 84 % 1034,1 hPa 0,0 l/m 0,0 km/h N -0,8 C 1,6 C 0,0 km/h
28.01.2018 02:00 1,6 C 84 % 1033,9 hPa 0,0 l/m 0,0 km/h N -0,8 C 1,6 C 0,0 km/h
28.01.2018 03:00 1,6 C 84 % 1033,3 hPa 0,0 l/m 0,0 km/h N -0,8 C 1,6 C 0,0 km/h
28.01.2018 04:00 1,9 C 84 % 1033,4 hPa 0,0 l/m 0,0 km/h N -0,5 C 1,9 C 0,0 km/h
28.01.2018 05:00 2,1 C 84 % 1032,7 hPa 0,0 l/m 0,0 km/h N -0,3 C 2,1 C 0,0 km/h
28.01.2018 06:00 1,9 C 84 % 1032,6 hPa 0,0 l/m 0,0 km/h N -0,5 C 1,9 C 0,0 km/h
28.01.2018 07:00 1,5 C 84 % 1032,5 hPa 0,0 l/m 0,0 km/h N -0,9 C 1,5 C 0,4 km/h
28.01.2018 08:00 1,0 C 84 % 1032,6 hPa 0,0 l/m 0,0 km/h N -1,3 C 1,0 C 0,4 km/h
28.01.2018 09:00 2,6 C 84 % 1032,1 hPa 0,0 l/m 0,1 km/h N 0,1 C 2,6 C 4,4 km/h
28.01.2018 10:00 6,4 C 84 % 1031,8 hPa 0,0 l/m 1,3 km/h N 3,8 C 6,4 C 9,3 km/h
28.01.2018 11:00 9,8 C 65 % 1031,2 hPa 0,0 l/m 3,6 km/h N 3,5 C 9,8 C 17,7 km/h
28.01.2018 12:00 11,7 C 49 % 1030,6 hPa 0,0 l/m 10,4 km/h N 1,3 C 9,4 C 29,8 km/h
28.01.2018 13:00 11,9 C 45 % 1030,3 hPa 0,0 l/m 16,8 km/h N 0,2 C 6,9 C 38,3 km/h
28.01.2018 14:00 11,4 C 51 % 1030,5 hPa 0,0 l/m 18,6 km/h N 1,6 C 5,6 C 41,8 km/h
28.01.2018 15:00 10,9 C 59 % 1030,9 hPa 0,0 l/m 16,9 km/h N 3,2 C 5,6 C 41,5 km/h
28.01.2018 16:00 10,7 C 63 % 1030,4 hPa 0,0 l/m 12,0 km/h N 3,9 C 7,4 C 35,0 km/h
28.01.2018 17:00 10,6 C 64 % 1030,5 hPa 0,0 l/m 17,8 km/h N 4,0 C 4,8 C 40,2 km/h
28.01.2018 18:00 9,8 C 72 % 1030,9 hPa 0,0 l/m 15,9 km/h N 4,9 C 4,5 C 38,2 km/h
28.01.2018 19:00 9,7 C 73 % 1030,3 hPa 0,0 l/m 17,0 km/h N 5,1 C 4,0 C 41,8 km/h
28.01.2018 20:00 10,0 C 70 % 1030,7 hPa 0,0 l/m 13,7 km/h N 4,7 C 5,7 C 31,8 km/h
28.01.2018 21:00 10,6 C 68 % 1030,2 hPa 0,0 l/m 13,9 km/h N 4,9 C 6,4 C 38,2 km/h
28.01.2018 22:00 10,9 C 68 % 1029,9 hPa 0,0 l/m 13,9 km/h N 5,1 C 6,7 C 35,4 km/h
28.01.2018 23:00 11,1 C 66 % 1029,2 hPa 0,0 l/m 14,5 km/h N 5,0 C 6,7 C 39,8 km/h
Min-Datum _ 22.01.18 28.01.18 22.01.18 - 22.01.18 - 22.01.18 22.01.18 22.01.18
_ Min-Zeit 05:30 13:15 15:45 - 04:00 - 05:15 05:30 04:00
Minimum _ -3,2 C 42 % 1012,6 hPa - 0,0 km/h - -6,1 C -3,1 C 0,0 km/h
Max-Datum _ 28.01.18 22.01.18 27.01.18 23.01.18 28.01.18 - 28.01.18 28.01.18 28.01.18
_ Max-Zeit 13:00 08:30 22:00 04:00 15:00 - 18:45 12:00 21:30
Maximum _ 12,1 C 84 % 1034,7 hPa 0,8 l/m 21,1 km/h
N
- 5,3 C 11,4 C 46,7 km/h
N
Durchschnitt _ 2,7 C 81 % 1024,4 hPa #1,8 l/m 2,2 km/h N -0,4 C 2,2 C 6,7 km/h